Doris Moran — WRU2125 — position and weather

sailwx.info

Track history (hours):
 
Tides and Currents Weather Stations Pressure Air Temp Water Temp Dewpoint Dewpoint Depression Visibility Wind Speed Wind Dir Waves Ship Positions

Doris Moran

Owner: MORAN TOWING CORPORATION, New Canaan, CT. More information available from US FCC via Universal Licensing System and Coast Guard Vessel Documentation Center.

Last reported at 2016-Dec-06 04:14 UTC. Time now 2016-Dec-06 10:14 UTC.
Position N 40°55' W 073°55'.

Length 151 m; draft 5.3 m.

Type: . MMSI: 366939790.

Date/timePositionNaut miles runAvg speedWind from/ knotsBaromVisibWave heightAir tempDewpointWater temp
2016-Dec-06 04:14N 40°55' W 073°55'5 7.4
2016-Dec-06 03:33N 40°50' W 073°57'8 7.9
2016-Dec-06 02:33N 40°43' W 074°01'5 4.5
2016-Dec-06 01:33N 40°46' W 073°57'7 6.8
2016-Dec-06 00:33N 40°48' W 073°48'4 1.7
2016-Dec-05 22:05N 40°52' W 073°45'0 0.0
2016-Dec-05 19:06N 40°52' W 073°45'  
2016-Dec-03 04:33N 42°15' W 070°38'8 7.8
2016-Dec-03 03:33N 42°20' W 070°46'7 7.0
2016-Dec-03 02:33N 42°22' W 070°55'5 4.8
2016-Dec-03 01:34N 42°21' W 071°02'2 2.2
2016-Dec-03 00:33N 42°23' W 071°04'0 0.0
2016-Dec-02 23:33N 42°23' W 071°04'0 0.0
2016-Dec-02 22:33N 42°23' W 071°04'0 0.0
2016-Dec-02 21:34N 42°23' W 071°04'0 0.0
2016-Dec-02 20:33N 42°23' W 071°04'0 0.0
2016-Dec-02 19:33N 42°23' W 071°04'0 0.0
2016-Dec-02 18:34N 42°23' W 071°04'0 0.0
2016-Dec-02 17:33N 42°23' W 071°04'0 0.1
2016-Dec-02 16:33N 42°23' W 071°03'6 6.0
2016-Dec-02 15:33N 42°21' W 070°56'6 6.1
2016-Dec-02 14:34N 42°22' W 070°48'1010.3
2016-Dec-02 13:33N 42°15' W 070°38'165 7.8
2016-Dec-01 16:26N 40°49' W 073°47'7 8.3
2016-Dec-01 15:33N 40°47' W 073°56'5 5.4
2016-Dec-01 14:33N 40°42' W 073°60'2 2.4
2016-Dec-01 13:33N 40°40' W 074°02'0 0.0
2016-Dec-01 12:32N 40°40' W 074°02'0 0.0
2016-Dec-01 11:32N 40°40' W 074°02'0 0.1
2016-Dec-01 10:32N 40°40' W 074°02'0 0.0
2016-Dec-01 09:32N 40°40' W 074°02'0 0.1
2016-Dec-01 08:32N 40°40' W 074°02'0 0.0
2016-Dec-01 07:32N 40°40' W 074°02'0 0.0
2016-Dec-01 06:32N 40°40' W 074°02'0 0.0
2016-Dec-01 05:32N 40°40' W 074°02'0 0.0
2016-Dec-01 04:32N 40°40' W 074°02'0 0.1
2016-Dec-01 03:32N 40°40' W 074°02'0 0.1
2016-Dec-01 02:32N 40°40' W 074°02'0 0.1
2016-Dec-01 01:32N 40°40' W 074°02'0 0.1
2016-Dec-01 00:32N 40°40' W 074°02'0 0.1
2016-Nov-30 23:32N 40°40' W 074°02'0 0.0
2016-Nov-30 22:32N 40°40' W 074°02'0 0.1
2016-Nov-30 21:32N 40°40' W 074°02'0 0.0
2016-Nov-30 20:32N 40°40' W 074°02'0 0.0
2016-Nov-30 19:32N 40°40' W 074°02'0 0.0
2016-Nov-30 18:32N 40°40' W 074°02'0 0.0
2016-Nov-30 17:32N 40°40' W 074°02'0 0.0
2016-Nov-30 16:32N 40°40' W 074°02'0 0.1
2016-Nov-30 15:32N 40°40' W 074°02'0 0.0
2016-Nov-30 14:32N 40°40' W 074°02'0 0.0
2016-Nov-30 13:32N 40°40' W 074°02'0 0.0
2016-Nov-30 12:32N 40°40' W 074°02'0 0.0
2016-Nov-30 11:32N 40°40' W 074°02'0 0.1
2016-Nov-30 10:32N 40°40' W 074°02'0 0.1
2016-Nov-30 09:32N 40°40' W 074°02'0 0.0
2016-Nov-30 08:32N 40°40' W 074°02'0 0.0
2016-Nov-30 07:32N 40°40' W 074°02'0 0.0
2016-Nov-30 06:32N 40°40' W 074°02'0 0.0
2016-Nov-30 05:32N 40°40' W 074°02'0 0.0
2016-Nov-30 04:32N 40°40' W 074°02'0 0.0
2016-Nov-30 03:32N 40°40' W 074°02'0 0.2
2016-Nov-30 02:32N 40°40' W 074°02'0 0.0
2016-Nov-30 01:32N 40°40' W 074°02'0 0.0
2016-Nov-30 00:32N 40°40' W 074°02'0 0.0
2016-Nov-29 23:32N 40°40' W 074°02'0 0.0
2016-Nov-29 22:32N 40°40' W 074°02'0 0.0
2016-Nov-29 21:32N 40°40' W 074°02'0 0.1
2016-Nov-29 20:32N 40°40' W 074°02'0 0.1
2016-Nov-29 19:32N 40°40' W 074°02'0 0.0
2016-Nov-29 18:32N 40°40' W 074°02'0 0.0
2016-Nov-29 17:32N 40°40' W 074°02'0 0.0
2016-Nov-29 16:32N 40°40' W 074°02'0 0.1
2016-Nov-29 15:32N 40°40' W 074°02'0 0.1
2016-Nov-29 14:32N 40°40' W 074°02'0 0.1
2016-Nov-29 13:34N 40°40' W 074°02'3 3.3
2016-Nov-29 12:33N 40°39' W 074°06'0 0.0
2016-Nov-29 11:32N 40°39' W 074°06'0 0.0
2016-Nov-29 10:32N 40°39' W 074°06'0 0.0
2016-Nov-29 09:34N 40°39' W 074°06'0 0.0
2016-Nov-29 08:34N 40°39' W 074°06'0 0.0
2016-Nov-29 07:34N 40°39' W 074°06'0 0.0
2016-Nov-29 06:33N 40°39' W 074°06'2 1.6
2016-Nov-29 05:33N 40°38' W 074°08'2 1.6
2016-Nov-29 04:33N 40°39' W 074°06'2 2.2
2016-Nov-29 03:33N 40°38' W 074°03'5 5.3
2016-Nov-29 02:33N 40°33' W 074°01'8 7.5
2016-Nov-29 01:33N 40°28' W 073°53'22 9.4
2016-Nov-28 23:15N 40°07' W 073°55'1710.1
2016-Nov-28 21:33N 39°49' W 073°58'1010.3
2016-Nov-28 20:33N 39°40' W 074°02'1010.1
2016-Nov-28 19:33N 39°31' W 074°08'48 9.6
2016-Nov-28 14:33N 38°54' W 074°47'9 9.0
2016-Nov-28 13:34N 38°48' W 074°56'8 7.6
2016-Nov-28 12:31N 38°53' W 075°04'7 7.7
2016-Nov-28 11:33N 38°60' W 075°09'5 5.0
2016-Nov-28 10:33N 39°05' W 075°11'9 9.1
2016-Nov-28 09:34N 39°12' W 075°17'1111.0
2016-Nov-28 08:33N 39°21' W 075°26'1111.3
2016-Nov-28 07:33N 39°31' W 075°33'5 4.8
2016-Nov-28 06:33N 39°33' W 075°38'8 8.2
2016-Nov-28 05:33N 39°32' W 075°49'8 7.9
2016-Nov-28 04:33N 39°28' W 075°58'9 9.1
2016-Nov-28 03:33N 39°22' W 076°07'10 8.9
2016-Nov-28 02:29N 39°15' W 076°14'8 8.4
2016-Nov-28 01:33N 39°09' W 076°22'6 5.8
2016-Nov-28 00:34N 39°13' W 076°28'0 0.0
2016-Nov-27 23:33N 39°13' W 076°28'0 0.0
2016-Nov-27 14:14N 39°13' W 076°28'0 0.0
2016-Nov-27 12:08N 39°13' W 076°28'0 0.0
2016-Nov-27 11:32N 39°13' W 076°28'0 0.0
2016-Nov-27 10:31N 39°13' W 076°28'0 0.0
2016-Nov-27 08:22N 39°13' W 076°28'0 0.0
2016-Nov-27 07:31N 39°13' W 076°28'0 0.0
2016-Nov-27 06:10N 39°13' W 076°28'0 0.0
2016-Nov-27 05:07N 39°13' W 076°28'0 0.0
2016-Nov-27 04:19N 39°13' W 076°28'0 0.0
2016-Nov-27 02:26N 39°13' W 076°28'0 0.0
2016-Nov-27 01:29N 39°13' W 076°28'0 0.0
2016-Nov-27 00:30N 39°13' W 076°28'7 7.6
2016-Nov-26 23:33N 39°17' W 076°35'0 0.2
2016-Nov-26 22:30N 39°17' W 076°36'0 0.0
2016-Nov-26 21:33N 39°17' W 076°36'7 7.4
2016-Nov-26 20:33N 39°12' W 076°29'1 1.3
2016-Nov-26 19:31N 39°13' W 076°28'7 7.6
2016-Nov-26 18:33N 39°09' W 076°19'2210.8
2016-Nov-26 16:33N 39°25' W 076°01'1010.5
2016-Nov-26 15:33N 39°32' W 075°51'1111.3
2016-Nov-26 14:33N 39°33' W 075°36'4 3.9
2016-Nov-26 13:33N 39°30' W 075°33'7 6.6
2016-Nov-26 12:33N 39°24' W 075°30'9 8.7
2016-Nov-26 11:33N 39°18' W 075°22'1010.5
2016-Nov-26 10:33N 39°09' W 075°15'1111.1
2016-Nov-26 09:33N 38°59' W 075°09'5 4.9
2016-Nov-26 08:33N 38°55' W 075°05'8 8.1
2016-Nov-26 07:33N 38°48' W 074°59'  
Track history (hours):
 
Tides and Currents Weather Stations Pressure Air Temp Water Temp Dewpoint Dewpoint Depression Visibility Wind Speed Wind Dir Waves Ship Positions

Doris Moran

Owner: MORAN TOWING CORPORATION, New Canaan, CT. More information available from US FCC via Universal Licensing System and Coast Guard Vessel Documentation Center.

Last reported at 2016-Dec-06 04:14 UTC. Time now 2016-Dec-06 10:14 UTC.
Position N 40°55' W 073°55'.

Length 151 m; draft 5.3 m.

Type: . MMSI: 366939790.

Date/timePositionNaut miles runAvg speedWind from/ knotsBaromVisibWave heightAir tempDewpointWater temp
2016-Dec-06 04:14N 40°55' W 073°55'5 7.4
2016-Dec-06 03:33N 40°50' W 073°57'8 7.9
2016-Dec-06 02:33N 40°43' W 074°01'5 4.5
2016-Dec-06 01:33N 40°46' W 073°57'7 6.8
2016-Dec-06 00:33N 40°48' W 073°48'4 1.7
2016-Dec-05 22:05N 40°52' W 073°45'0 0.0
2016-Dec-05 19:06N 40°52' W 073°45'  
2016-Dec-03 04:33N 42°15' W 070°38'8 7.8
2016-Dec-03 03:33N 42°20' W 070°46'7 7.0
2016-Dec-03 02:33N 42°22' W 070°55'5 4.8
2016-Dec-03 01:34N 42°21' W 071°02'2 2.2
2016-Dec-03 00:33N 42°23' W 071°04'0 0.0
2016-Dec-02 23:33N 42°23' W 071°04'0 0.0
2016-Dec-02 22:33N 42°23' W 071°04'0 0.0
2016-Dec-02 21:34N 42°23' W 071°04'0 0.0
2016-Dec-02 20:33N 42°23' W 071°04'0 0.0
2016-Dec-02 19:33N 42°23' W 071°04'0 0.0
2016-Dec-02 18:34N 42°23' W 071°04'0 0.0
2016-Dec-02 17:33N 42°23' W 071°04'0 0.1
2016-Dec-02 16:33N 42°23' W 071°03'6 6.0
2016-Dec-02 15:33N 42°21' W 070°56'6 6.1
2016-Dec-02 14:34N 42°22' W 070°48'1010.3
2016-Dec-02 13:33N 42°15' W 070°38'165 7.8
2016-Dec-01 16:26N 40°49' W 073°47'7 8.3
2016-Dec-01 15:33N 40°47' W 073°56'5 5.4
2016-Dec-01 14:33N 40°42' W 073°60'2 2.4
2016-Dec-01 13:33N 40°40' W 074°02'0 0.0
2016-Dec-01 12:32N 40°40' W 074°02'0 0.0
2016-Dec-01 11:32N 40°40' W 074°02'0 0.1
2016-Dec-01 10:32N 40°40' W 074°02'0 0.0
2016-Dec-01 09:32N 40°40' W 074°02'0 0.1
2016-Dec-01 08:32N 40°40' W 074°02'0 0.0
2016-Dec-01 07:32N 40°40' W 074°02'0 0.0
2016-Dec-01 06:32N 40°40' W 074°02'0 0.0
2016-Dec-01 05:32N 40°40' W 074°02'0 0.0
2016-Dec-01 04:32N 40°40' W 074°02'0 0.1
2016-Dec-01 03:32N 40°40' W 074°02'0 0.1
2016-Dec-01 02:32N 40°40' W 074°02'0 0.1
2016-Dec-01 01:32N 40°40' W 074°02'0 0.1
2016-Dec-01 00:32N 40°40' W 074°02'0 0.1
2016-Nov-30 23:32N 40°40' W 074°02'0 0.0
2016-Nov-30 22:32N 40°40' W 074°02'0 0.1
2016-Nov-30 21:32N 40°40' W 074°02'0 0.0
2016-Nov-30 20:32N 40°40' W 074°02'0 0.0
2016-Nov-30 19:32N 40°40' W 074°02'0 0.0
2016-Nov-30 18:32N 40°40' W 074°02'0 0.0
2016-Nov-30 17:32N 40°40' W 074°02'0 0.0
2016-Nov-30 16:32N 40°40' W 074°02'0 0.1
2016-Nov-30 15:32N 40°40' W 074°02'0 0.0
2016-Nov-30 14:32N 40°40' W 074°02'0 0.0
2016-Nov-30 13:32N 40°40' W 074°02'0 0.0
2016-Nov-30 12:32N 40°40' W 074°02'0 0.0
2016-Nov-30 11:32N 40°40' W 074°02'0 0.1
2016-Nov-30 10:32N 40°40' W 074°02'0 0.1
2016-Nov-30 09:32N 40°40' W 074°02'0 0.0
2016-Nov-30 08:32N 40°40' W 074°02'0 0.0
2016-Nov-30 07:32N 40°40' W 074°02'0 0.0
2016-Nov-30 06:32N 40°40' W 074°02'0 0.0
2016-Nov-30 05:32N 40°40' W 074°02'0 0.0
2016-Nov-30 04:32N 40°40' W 074°02'0 0.0
2016-Nov-30 03:32N 40°40' W 074°02'0 0.2
2016-Nov-30 02:32N 40°40' W 074°02'0 0.0
2016-Nov-30 01:32N 40°40' W 074°02'0 0.0
2016-Nov-30 00:32N 40°40' W 074°02'0 0.0
2016-Nov-29 23:32N 40°40' W 074°02'0 0.0
2016-Nov-29 22:32N 40°40' W 074°02'0 0.0
2016-Nov-29 21:32N 40°40' W 074°02'0 0.1
2016-Nov-29 20:32N 40°40' W 074°02'0 0.1
2016-Nov-29 19:32N 40°40' W 074°02'0 0.0
2016-Nov-29 18:32N 40°40' W 074°02'0 0.0
2016-Nov-29 17:32N 40°40' W 074°02'0 0.0
2016-Nov-29 16:32N 40°40' W 074°02'0 0.1
2016-Nov-29 15:32N 40°40' W 074°02'0 0.1
2016-Nov-29 14:32N 40°40' W 074°02'0 0.1
2016-Nov-29 13:34N 40°40' W 074°02'3 3.3
2016-Nov-29 12:33N 40°39' W 074°06'0 0.0
2016-Nov-29 11:32N 40°39' W 074°06'0 0.0
2016-Nov-29 10:32N 40°39' W 074°06'0 0.0
2016-Nov-29 09:34N 40°39' W 074°06'0 0.0
2016-Nov-29 08:34N 40°39' W 074°06'0 0.0
2016-Nov-29 07:34N 40°39' W 074°06'0 0.0
2016-Nov-29 06:33N 40°39' W 074°06'2 1.6
2016-Nov-29 05:33N 40°38' W 074°08'2 1.6
2016-Nov-29 04:33N 40°39' W 074°06'2 2.2
2016-Nov-29 03:33N 40°38' W 074°03'5 5.3
2016-Nov-29 02:33N 40°33' W 074°01'8 7.5
2016-Nov-29 01:33N 40°28' W 073°53'22 9.4
2016-Nov-28 23:15N 40°07' W 073°55'1710.1
2016-Nov-28 21:33N 39°49' W 073°58'1010.3
2016-Nov-28 20:33N 39°40' W 074°02'1010.1
2016-Nov-28 19:33N 39°31' W 074°08'48 9.6
2016-Nov-28 14:33N 38°54' W 074°47'9 9.0
2016-Nov-28 13:34N 38°48' W 074°56'8 7.6
2016-Nov-28 12:31N 38°53' W 075°04'7 7.7
2016-Nov-28 11:33N 38°60' W 075°09'5 5.0
2016-Nov-28 10:33N 39°05' W 075°11'9 9.1
2016-Nov-28 09:34N 39°12' W 075°17'1111.0
2016-Nov-28 08:33N 39°21' W 075°26'1111.3
2016-Nov-28 07:33N 39°31' W 075°33'5 4.8
2016-Nov-28 06:33N 39°33' W 075°38'8 8.2
2016-Nov-28 05:33N 39°32' W 075°49'8 7.9
2016-Nov-28 04:33N 39°28' W 075°58'9 9.1
2016-Nov-28 03:33N 39°22' W 076°07'10 8.9
2016-Nov-28 02:29N 39°15' W 076°14'8 8.4
2016-Nov-28 01:33N 39°09' W 076°22'6 5.8
2016-Nov-28 00:34N 39°13' W 076°28'0 0.0
2016-Nov-27 23:33N 39°13' W 076°28'0 0.0
2016-Nov-27 14:14N 39°13' W 076°28'0 0.0
2016-Nov-27 12:08N 39°13' W 076°28'0 0.0
2016-Nov-27 11:32N 39°13' W 076°28'0 0.0
2016-Nov-27 10:31N 39°13' W 076°28'0 0.0
2016-Nov-27 08:22N 39°13' W 076°28'0 0.0
2016-Nov-27 07:31N 39°13' W 076°28'0 0.0
2016-Nov-27 06:10N 39°13' W 076°28'0 0.0
2016-Nov-27 05:07N 39°13' W 076°28'0 0.0
2016-Nov-27 04:19N 39°13' W 076°28'0 0.0
2016-Nov-27 02:26N 39°13' W 076°28'0 0.0
2016-Nov-27 01:29N 39°13' W 076°28'0 0.0
2016-Nov-27 00:30N 39°13' W 076°28'7 7.6
2016-Nov-26 23:33N 39°17' W 076°35'0 0.2
2016-Nov-26 22:30N 39°17' W 076°36'0 0.0
2016-Nov-26 21:33N 39°17' W 076°36'7 7.4
2016-Nov-26 20:33N 39°12' W 076°29'1 1.3
2016-Nov-26 19:31N 39°13' W 076°28'7 7.6
2016-Nov-26 18:33N 39°09' W 076°19'2210.8
2016-Nov-26 16:33N 39°25' W 076°01'1010.5
2016-Nov-26 15:33N 39°32' W 075°51'1111.3
2016-Nov-26 14:33N 39°33' W 075°36'4 3.9
2016-Nov-26 13:33N 39°30' W 075°33'7 6.6
2016-Nov-26 12:33N 39°24' W 075°30'9 8.7
2016-Nov-26 11:33N 39°18' W 075°22'1010.5
2016-Nov-26 10:33N 39°09' W 075°15'1111.1
2016-Nov-26 09:33N 38°59' W 075°09'5 4.9
2016-Nov-26 08:33N 38°55' W 075°05'8 8.1
2016-Nov-26 07:33N 38°48' W 074°59'  

Dump ship's entire track history